Tilley, Canada
Current Conditions -  °F | °C
As of 12:00 AM on Friday 31 Oct 2014 (Local Time) from CYXH Reporting Station
Overcast Overcast  
Wind Chill: 42°   Ceiling: 14000
Heat Index: 46°   Visibility: 9mi
Dew Point: 36°   Wind: 9mph
Humidity: 66%   Direction: 140°SE
Pressure: 29.99"   Gusts: 24mph
Location:  50.45°N, 111.65°W
Report Text: CYXH 310600Z AUTO 14008G21KT 9SM OVC140 08/02 A2999 RMK PRESFR SLP175
Loading
Personal Weather Stations






























Interactive Weather Map
Tropical Storm Tracking
New forecast layout! Learn more

10-Day Weather Forecast

Advertisements
Track Severe Weather on mobile